Terminal Aerodrome Forecast
Issued by NWS

Home | Current Version | Previous Version | Text Only | Print | Product List | Glossary On
Versions: 1 2 3 4 5 6 7 8 9 10 11 12 13 14 15 16 17 18 19
000
FTUS43 KDDC 291330 AAC
TAFGCK
TAF AMD
KGCK 291330Z 2914/3012 06019G26KT 4SM RA BR OVC005
      TEMPO 2915/2919 2SM -RA BR OVC003
     FM300000 02015G25KT 3SM -RA OVC003
     FM300600 34015G25KT P6SM VCSH BKN008
     FM300900 32015G25KT P6SM VCSH BKN020=

USA.gov is the U.S. government's official web portal to all federal, state and local government web resources and services.